Terminal Aerodrome Forecast
Issued by NWS

Home | Current Version | Previous Version | Graphics & Text | Print | Product List | Glossary On
Versions: 1 2 3 4 5 6 7 8 9 10 11 12 13 14 15 16 17 18 19 20 21 22 23 24 25 26 27 28 29 30 31 32 33 34 35 36 37 38
000
FTUS43 KLOT 140500
TAFORD
TAF
KORD 140534Z 1406/1512 20015G25KT P6SM VCSH SCT025 BKN050 OVC100
     FM141000 35023G33KT P6SM SCT007 OVC009
     FM141800 35019G28KT P6SM OVC015
     FM142100 36015G25KT 2SM -SN BR SCT012 OVC020
     FM150400 36012KT P6SM OVC015=

USA.gov is the U.S. government's official web portal to all federal, state and local government web resources and services.